createdAt,value
2022-10-31T00:01:46.288Z,33.95
2022-10-31T00:04:15.566Z,33.90
2022-10-31T00:06:44.887Z,33.92
2022-10-31T00:09:15.857Z,36.85
2022-10-31T00:11:45.179Z,32.97
2022-10-31T00:14:14.408Z,38.75
2022-10-31T00:16:43.911Z,32.50
2022-10-31T00:19:13.196Z,34.90
2022-10-31T00:21:42.611Z,35.17
2022-10-31T00:24:12.570Z,41.58
2022-10-31T00:26:43.477Z,33.28
2022-10-31T00:29:13.852Z,37.10
2022-10-31T00:31:43.229Z,33.50
2022-10-31T00:34:12.395Z,36.08
2022-10-31T00:36:42.284Z,31.63
2022-10-31T00:39:16.011Z,36.72
2022-10-31T00:44:16.434Z,35.45
2022-10-31T00:46:45.788Z,34.72
2022-10-31T00:49:14.993Z,30.63
2022-10-31T00:51:44.595Z,39.25
2022-10-31T00:54:13.840Z,28.92
2022-10-31T00:56:43.313Z,33.42
2022-10-31T00:59:13.847Z,33.53
2022-10-31T01:01:44.619Z,33.25
2022-10-31T01:04:14.030Z,33.38
2022-10-31T01:06:43.375Z,32.47
2022-10-31T01:09:12.627Z,38.60
2022-10-31T01:11:42.001Z,36.10
2022-10-31T01:14:13.739Z,35.28
2022-10-31T01:16:43.254Z,33.75
2022-10-31T01:19:12.400Z,40.17
2022-10-31T01:21:41.788Z,35.97
2022-10-31T01:24:11.423Z,39.17
2022-10-31T01:26:41.590Z,38.38
2022-10-31T01:29:13.282Z,45.17
2022-10-31T01:31:43.683Z,43.05
2022-10-31T01:34:16.824Z,41.83
2022-10-31T01:36:52.375Z,47.03
2022-10-31T01:39:22.380Z,44.80
2022-10-31T01:41:54.129Z,43.22
2022-10-31T01:45:01.089Z,42.25
2022-10-31T01:47:39.625Z,47.55
2022-10-31T01:50:22.817Z,40.15
2022-10-31T01:52:54.674Z,47.05
2022-10-31T01:55:30.442Z,44.33
2022-10-31T01:58:06.935Z,38.05
2022-10-31T02:00:37.943Z,34.00
2022-10-31T02:03:07.635Z,39.22
2022-10-31T02:05:37.932Z,49.65
2022-10-31T02:08:12.479Z,43.90
2022-10-31T02:10:44.866Z,45.67
2022-10-31T02:13:15.215Z,47.03
2022-10-31T02:15:53.715Z,47.28
2022-10-31T02:18:24.387Z,48.78
2022-10-31T02:21:04.327Z,47.35
2022-10-31T02:24:00.713Z,53.15
2022-10-31T02:27:04.936Z,43.22
2022-10-31T02:30:04.194Z,54.58
2022-10-31T02:32:52.560Z,53.67
2022-10-31T02:35:35.791Z,58.03
2022-10-31T02:38:15.395Z,58.78
2022-10-31T02:40:53.240Z,60.53
2022-10-31T02:43:37.366Z,53.67
2022-10-31T02:46:13.092Z,66.38
2022-10-31T02:48:46.762Z,64.20
2022-10-31T02:51:17.583Z,58.88
2022-10-31T02:53:46.883Z,68.72
2022-10-31T02:56:18.116Z,70.47
2022-10-31T02:58:51.080Z,68.80
2022-10-31T03:01:51.444Z,72.47
2022-10-31T03:04:48.540Z,62.17
2022-10-31T03:07:29.834Z,79.13
2022-10-31T03:10:11.702Z,79.20
2022-10-31T03:12:50.179Z,80.13
2022-10-31T03:15:25.819Z,81.18
2022-10-31T03:18:01.333Z,70.45
2022-10-31T03:20:38.653Z,65.13
2022-10-31T03:23:13.462Z,86.78
2022-10-31T03:25:44.270Z,70.57
2022-10-31T03:31:21.715Z,84.60
2022-10-31T03:33:53.323Z,67.60
2022-10-31T03:36:25.404Z,71.32
2022-10-31T03:38:56.327Z,71.10
2022-10-31T03:41:31.195Z,59.92
2022-10-31T03:44:05.370Z,58.10
2022-10-31T03:46:36.485Z,57.22
2022-10-31T03:49:06.663Z,53.75
2022-10-31T03:51:46.044Z,49.67
2022-10-31T03:54:23.177Z,57.72
2022-10-31T03:56:56.255Z,61.35
2022-10-31T03:59:31.361Z,60.95
2022-10-31T04:02:06.419Z,59.45
2022-10-31T04:04:37.306Z,61.90
2022-10-31T04:07:11.097Z,59.13
2022-10-31T04:09:45.113Z,61.97
2022-10-31T04:12:18.029Z,59.28
2022-10-31T04:15:13.579Z,61.50
2022-10-31T04:17:47.492Z,81.22
2022-10-31T04:20:19.454Z,66.20
2022-10-31T04:22:50.196Z,76.60
2022-10-31T04:25:19.652Z,67.25
2022-10-31T04:27:48.809Z,65.93
2022-10-31T04:30:18.351Z,65.25
2022-10-31T04:32:47.701Z,63.58
2022-10-31T04:35:17.222Z,65.47
2022-10-31T04:37:46.824Z,58.85
2022-10-31T04:40:18.412Z,62.30
2022-10-31T04:43:06.214Z,62.08
2022-10-31T04:45:35.652Z,67.03
2022-10-31T04:48:05.293Z,57.22
2022-10-31T04:50:37.391Z,58.08
2022-10-31T04:53:06.654Z,69.55
2022-10-31T04:55:44.443Z,61.60
2022-10-31T04:58:20.123Z,59.58
2022-10-31T05:00:49.606Z,63.08
2022-10-31T05:03:18.790Z,55.03
2022-10-31T05:05:50.065Z,61.78
2022-10-31T05:08:19.398Z,53.90
2022-10-31T05:10:53.087Z,60.70
2022-10-31T05:16:17.064Z,51.60
2022-10-31T05:19:05.252Z,63.28
2022-10-31T05:21:54.671Z,50.67
2022-10-31T05:24:23.929Z,53.75
2022-10-31T05:26:54.699Z,52.47
2022-10-31T05:29:24.064Z,60.53
2022-10-31T05:31:54.391Z,48.90
2022-10-31T05:34:43.796Z,42.40
2022-10-31T05:37:36.385Z,62.20
2022-10-31T05:40:08.547Z,58.83
2022-10-31T05:42:41.680Z,52.92
2022-10-31T05:45:12.663Z,48.72
2022-10-31T05:48:04.063Z,55.25
2022-10-31T05:50:53.422Z,49.53
2022-10-31T05:53:22.897Z,53.03
2022-10-31T05:55:52.210Z,64.05
2022-10-31T05:58:25.422Z,60.45
2022-10-31T06:01:06.808Z,52.35
2022-10-31T06:03:36.481Z,55.10
2022-10-31T06:06:08.527Z,56.22
2022-10-31T06:08:40.914Z,66.38
2022-10-31T06:11:16.576Z,61.33
2022-10-31T06:14:06.803Z,61.53
2022-10-31T06:16:49.866Z,67.13
2022-10-31T06:19:39.706Z,65.13
2022-10-31T06:24:38.482Z,63.90
2022-10-31T06:27:20.409Z,71.65
2022-10-31T06:32:32.384Z,63.83
2022-10-31T06:37:31.381Z,68.53
2022-10-31T06:40:08.274Z,58.60
2022-10-31T06:43:01.973Z,64.43
2022-10-31T06:45:34.511Z,57.00
2022-10-31T06:48:23.346Z,58.20
2022-10-31T06:51:31.716Z,62.88
2022-10-31T06:54:02.446Z,67.60
2022-10-31T06:56:31.961Z,67.35
2022-10-31T06:59:02.076Z,65.65
2022-10-31T07:02:00.692Z,68.40
2022-10-31T07:04:30.087Z,67.50
2022-10-31T07:06:59.719Z,78.55
2022-10-31T07:09:29.106Z,62.97
2022-10-31T07:12:00.932Z,70.93
2022-10-31T07:14:32.065Z,64.13
2022-10-31T07:19:38.343Z,61.75
2022-10-31T07:24:37.663Z,63.90
2022-10-31T07:27:16.674Z,65.25
2022-10-31T07:29:47.949Z,72.72
2022-10-31T07:32:20.315Z,76.70
2022-10-31T07:34:55.308Z,72.95
2022-10-31T07:37:30.487Z,79.97
2022-10-31T07:40:01.572Z,72.20
2022-10-31T07:42:37.997Z,81.03
2022-10-31T07:45:10.365Z,89.95
2022-10-31T07:48:04.383Z,70.57
2022-10-31T07:50:52.562Z,74.93
2022-10-31T07:53:22.113Z,92.15
2022-10-31T07:55:54.982Z,88.78
2022-10-31T07:58:30.419Z,72.07
2022-10-31T08:01:01.985Z,67.22
2022-10-31T08:03:42.830Z,72.15
2022-10-31T08:06:38.245Z,75.30
2022-10-31T08:09:29.651Z,75.90
2022-10-31T08:12:02.535Z,72.75
2022-10-31T08:14:33.989Z,81.45
2022-10-31T08:17:03.809Z,78.53
2022-10-31T08:19:44.616Z,77.55
2022-10-31T08:22:16.771Z,83.22
2022-10-31T08:25:11.985Z,96.72
2022-10-31T08:27:43.124Z,106.82
2022-10-31T08:30:20.266Z,93.40
2022-10-31T08:33:14.350Z,102.70
2022-10-31T08:36:20.409Z,113.18
2022-10-31T08:38:54.600Z,106.00
2022-10-31T08:41:27.312Z,100.88
2022-10-31T08:43:56.551Z,103.90
2022-10-31T08:48:55.824Z,117.53
2022-10-31T08:51:27.614Z,140.07
2022-10-31T08:53:59.113Z,128.88
2022-10-31T08:56:28.538Z,121.72
2022-10-31T08:58:57.871Z,104.20
2022-10-31T09:01:37.840Z,114.95
2022-10-31T09:04:08.673Z,97.65
2022-10-31T09:07:08.025Z,98.20
2022-10-31T09:09:35.339Z,99.13
2022-10-31T09:12:05.123Z,98.43
2022-10-31T09:14:46.086Z,97.30
2022-10-31T09:20:14.795Z,86.28
2022-10-31T09:22:47.899Z,86.70
2022-10-31T09:25:17.184Z,91.72
2022-10-31T09:27:52.614Z,81.80
2022-10-31T09:32:58.305Z,79.28
2022-10-31T09:35:29.529Z,83.05
2022-10-31T09:38:04.313Z,93.63
2022-10-31T09:40:37.299Z,90.07
2022-10-31T09:43:16.763Z,83.63
2022-10-31T09:45:58.227Z,78.43
2022-10-31T09:49:03.571Z,76.65
2022-10-31T09:51:55.965Z,75.75
2022-10-31T09:54:37.883Z,77.60
2022-10-31T09:57:12.992Z,65.18
2022-10-31T09:59:46.532Z,73.00
2022-10-31T10:02:24.163Z,72.22
2022-10-31T10:04:59.415Z,80.82
2022-10-31T10:07:37.723Z,71.53
2022-10-31T10:10:38.497Z,73.57
2022-10-31T10:13:54.883Z,67.25
2022-10-31T10:16:41.230Z,76.13
2022-10-31T10:19:23.037Z,71.32
2022-10-31T10:22:00.886Z,88.03
2022-10-31T10:24:55.546Z,71.65
2022-10-31T10:27:33.311Z,69.13
2022-10-31T10:30:07.886Z,76.78
2022-10-31T10:32:49.297Z,79.20
2022-10-31T10:35:27.019Z,69.35
2022-10-31T10:38:11.143Z,63.00
2022-10-31T10:40:41.763Z,77.30
2022-10-31T10:43:26.368Z,74.13
2022-10-31T10:46:37.043Z,67.25
2022-10-31T10:49:18.588Z,56.03
2022-10-31T10:54:49.036Z,55.47
2022-10-31T10:57:44.025Z,50.83
2022-10-31T11:00:23.967Z,58.17
2022-10-31T11:02:54.202Z,54.58
2022-10-31T11:05:30.397Z,49.15
2022-10-31T11:07:59.640Z,57.08
2022-10-31T11:13:06.801Z,46.83
2022-10-31T11:15:51.190Z,52.70
2022-10-31T11:21:01.608Z,46.83
2022-10-31T11:23:32.003Z,48.92
2022-10-31T11:26:03.380Z,45.42
2022-10-31T11:28:36.050Z,42.28
2022-10-31T11:31:14.575Z,37.28
2022-10-31T11:33:50.424Z,37.00
2022-10-31T11:36:25.422Z,36.25
2022-10-31T11:38:56.098Z,38.13
2022-10-31T11:41:30.178Z,39.78
2022-10-31T11:44:02.654Z,39.38
2022-10-31T11:46:37.996Z,35.22
2022-10-31T11:49:23.767Z,38.40
2022-10-31T11:51:56.767Z,36.33
2022-10-31T11:54:29.767Z,31.55
2022-10-31T11:56:59.235Z,33.60
2022-10-31T11:59:31.416Z,34.88
2022-10-31T12:02:03.631Z,32.92
2022-10-31T12:04:44.289Z,33.70
2022-10-31T12:07:13.841Z,29.13
2022-10-31T12:12:44.231Z,28.20
2022-10-31T12:15:32.525Z,31.83
2022-10-31T12:18:49.788Z,34.23
2022-10-31T12:21:31.838Z,36.22
2022-10-31T12:24:15.666Z,29.85
2022-10-31T12:26:59.596Z,30.55
2022-10-31T12:29:44.358Z,33.70
2022-10-31T12:32:30.169Z,31.60
2022-10-31T12:35:25.652Z,31.67
2022-10-31T12:38:19.180Z,28.88
2022-10-31T12:41:10.971Z,32.40
2022-10-31T12:43:49.163Z,30.33
2022-10-31T12:46:27.634Z,36.53
2022-10-31T12:49:19.372Z,32.80
2022-10-31T12:51:59.267Z,35.20
2022-10-31T12:54:48.134Z,35.35
2022-10-31T12:57:25.355Z,34.45
2022-10-31T13:00:00.336Z,30.20
2022-10-31T13:02:34.340Z,36.30
2022-10-31T13:05:09.943Z,30.77
2022-10-31T13:07:45.411Z,34.75
2022-10-31T13:10:21.815Z,40.70
2022-10-31T13:12:55.352Z,42.03
2022-10-31T13:15:28.114Z,35.47
2022-10-31T13:18:00.825Z,30.80
2022-10-31T13:20:34.433Z,37.63
2022-10-31T13:23:23.831Z,35.65
2022-10-31T13:26:09.109Z,32.67
2022-10-31T13:28:43.167Z,37.22
2022-10-31T13:31:12.660Z,35.83
2022-10-31T13:33:49.471Z,35.65
2022-10-31T13:36:28.449Z,36.00
2022-10-31T13:39:04.588Z,37.22
2022-10-31T13:41:42.912Z,33.47
2022-10-31T13:44:24.994Z,34.90
2022-10-31T13:46:55.300Z,43.88
2022-10-31T13:49:39.588Z,33.97
2022-10-31T13:52:17.005Z,37.08
2022-10-31T13:54:50.147Z,39.38
2022-10-31T13:57:22.190Z,39.15
2022-10-31T13:59:55.122Z,44.92
2022-10-31T14:02:29.990Z,43.30
2022-10-31T14:05:02.232Z,34.95
2022-10-31T14:07:33.637Z,43.10
2022-10-31T14:10:07.072Z,39.25
2022-10-31T14:12:41.153Z,36.10
2022-10-31T14:15:19.092Z,38.00
2022-10-31T14:17:50.952Z,39.30
2022-10-31T14:20:41.287Z,36.72
2022-10-31T14:23:50.730Z,38.72
2022-10-31T14:26:36.135Z,39.13
2022-10-31T14:29:25.918Z,35.67
2022-10-31T14:31:58.253Z,33.90
2022-10-31T14:34:32.105Z,36.88
2022-10-31T14:37:35.004Z,35.03
2022-10-31T14:40:19.606Z,33.47
2022-10-31T14:43:07.144Z,39.45
2022-10-31T14:45:48.764Z,36.53
2022-10-31T14:48:44.132Z,36.35
2022-10-31T14:51:17.209Z,32.55
2022-10-31T14:53:50.527Z,36.47
2022-10-31T14:56:25.897Z,31.63
2022-10-31T14:59:00.040Z,37.20
2022-10-31T15:01:32.262Z,36.38
2022-10-31T15:04:24.299Z,33.58
2022-10-31T15:07:00.233Z,30.60
2022-10-31T15:09:32.072Z,33.03
2022-10-31T15:12:02.060Z,32.42
2022-10-31T15:14:33.815Z,32.78
2022-10-31T15:17:05.679Z,33.40
2022-10-31T15:19:37.655Z,28.55
2022-10-31T15:22:07.909Z,32.05
2022-10-31T15:24:39.873Z,34.88
2022-10-31T15:27:15.362Z,32.05
2022-10-31T15:29:53.441Z,32.13
2022-10-31T15:32:25.142Z,32.28
2022-10-31T15:34:56.656Z,32.13
2022-10-31T15:37:27.877Z,34.75
2022-10-31T15:39:57.542Z,35.97
2022-10-31T15:45:06.685Z,40.35
2022-10-31T15:47:38.048Z,38.73
2022-10-31T15:50:21.064Z,35.17
2022-10-31T15:52:52.178Z,37.88
2022-10-31T15:55:23.837Z,35.20
2022-10-31T15:57:56.211Z,42.75
2022-10-31T16:00:30.338Z,38.60
2022-10-31T16:03:27.405Z,39.47
2022-10-31T16:05:58.295Z,36.55
2022-10-31T16:08:38.195Z,34.85
2022-10-31T16:11:24.580Z,33.90
2022-10-31T16:14:00.572Z,35.97
2022-10-31T16:16:35.565Z,39.80
2022-10-31T16:19:08.413Z,34.67
2022-10-31T16:21:40.546Z,35.42
2022-10-31T16:24:20.913Z,34.78
2022-10-31T16:26:52.138Z,40.75
2022-10-31T16:29:30.123Z,33.55
2022-10-31T16:32:01.009Z,38.70
2022-10-31T16:34:30.324Z,38.15
2022-10-31T16:39:28.664Z,38.10
2022-10-31T16:41:59.005Z,41.70
2022-10-31T16:44:29.339Z,32.25
2022-10-31T16:47:15.259Z,41.42
2022-10-31T16:49:46.056Z,43.47
2022-10-31T16:52:15.643Z,47.05
2022-10-31T16:54:44.852Z,40.63
2022-10-31T16:57:19.536Z,50.42
2022-10-31T16:59:50.814Z,59.38
2022-10-31T17:02:22.258Z,58.15
2022-10-31T17:04:55.643Z,46.90
2022-10-31T17:07:26.509Z,46.33
2022-10-31T17:09:55.683Z,46.88
2022-10-31T17:14:57.808Z,46.17
2022-10-31T17:17:28.909Z,51.28
2022-10-31T17:19:58.297Z,45.22
2022-10-31T17:24:56.838Z,50.13
2022-10-31T17:29:55.481Z,50.80
2022-10-31T17:32:24.816Z,54.53
2022-10-31T17:34:55.599Z,45.88
2022-10-31T17:37:25.291Z,46.30
2022-10-31T17:42:23.555Z,44.15
2022-10-31T17:44:52.858Z,42.22
2022-10-31T17:47:22.211Z,45.75
2022-10-31T17:49:53.233Z,46.78
2022-10-31T17:52:24.581Z,39.80
2022-10-31T17:54:53.855Z,39.90
2022-10-31T17:59:52.303Z,43.20
2022-10-31T18:04:50.892Z,41.47
2022-10-31T18:07:20.338Z,40.17
2022-10-31T18:12:20.278Z,51.97
2022-10-31T18:14:49.403Z,46.28
2022-10-31T18:17:18.765Z,40.38
2022-10-31T18:19:48.205Z,44.75
2022-10-31T18:22:17.640Z,49.63
2022-10-31T18:24:46.778Z,29.83
2022-10-31T18:27:17.685Z,39.45
2022-10-31T18:29:46.930Z,42.83
2022-10-31T18:32:16.316Z,44.60
2022-10-31T18:34:45.579Z,43.50
2022-10-31T18:37:14.948Z,40.63
2022-10-31T18:39:44.190Z,39.28
2022-10-31T18:44:45.463Z,38.88
2022-10-31T18:47:14.869Z,43.20
2022-10-31T18:49:44.199Z,39.50
2022-10-31T18:52:13.538Z,46.63
2022-10-31T18:57:12.067Z,55.08
2022-10-31T18:59:41.226Z,46.28
2022-10-31T19:04:44.663Z,46.22
2022-10-31T19:07:13.986Z,47.00
2022-10-31T19:09:43.745Z,45.72
2022-10-31T19:12:13.113Z,42.50
2022-10-31T19:14:42.675Z,42.72
2022-10-31T19:17:13.488Z,45.92
2022-10-31T19:19:43.458Z,44.42
2022-10-31T19:22:12.864Z,38.95
2022-10-31T19:27:11.896Z,46.72
2022-10-31T19:29:42.384Z,44.60
2022-10-31T19:32:13.263Z,49.20
2022-10-31T19:34:42.744Z,56.22
2022-10-31T19:37:12.145Z,46.65
2022-10-31T19:42:15.099Z,47.15
2022-10-31T19:47:15.493Z,49.33
2022-10-31T19:49:44.790Z,54.92
2022-10-31T19:52:14.293Z,53.83
2022-10-31T19:54:43.743Z,51.42
2022-10-31T19:57:13.574Z,52.78
2022-10-31T19:59:43.062Z,58.00
2022-10-31T20:02:19.892Z,50.05
2022-10-31T20:04:49.965Z,58.30
2022-10-31T20:07:20.296Z,50.97
2022-10-31T20:12:18.623Z,49.33
2022-10-31T20:14:47.724Z,53.90
2022-10-31T20:17:18.810Z,48.10
2022-10-31T20:19:48.148Z,55.05
2022-10-31T20:24:46.763Z,51.20
2022-10-31T20:29:45.208Z,56.63
2022-10-31T20:32:14.519Z,50.38
2022-10-31T20:34:45.449Z,49.40
2022-10-31T20:37:15.191Z,42.38
2022-10-31T20:42:13.516Z,47.45
2022-10-31T20:44:42.643Z,46.30
2022-10-31T20:49:41.019Z,39.38
2022-10-31T20:52:12.113Z,44.55
2022-10-31T20:54:41.711Z,49.30
2022-10-31T20:57:11.198Z,52.00
2022-10-31T21:02:10.491Z,55.70
2022-10-31T21:04:39.857Z,58.05
2022-10-31T21:07:09.199Z,56.75
2022-10-31T21:09:39.867Z,53.95
2022-10-31T21:12:09.336Z,58.63
2022-10-31T21:14:38.988Z,68.88
2022-10-31T21:17:08.757Z,65.20
2022-10-31T21:19:38.083Z,60.25
2022-10-31T21:24:42.229Z,65.38
2022-10-31T21:27:12.547Z,61.47
2022-10-31T21:29:42.219Z,68.72
2022-10-31T21:32:11.591Z,64.90
2022-10-31T21:34:40.850Z,56.67
2022-10-31T21:37:10.444Z,58.72
2022-10-31T21:39:40.984Z,56.78
2022-10-31T21:42:10.583Z,58.55
2022-10-31T21:44:39.761Z,50.45
2022-10-31T21:49:38.361Z,47.90
2022-10-31T21:52:07.713Z,49.97
2022-10-31T21:54:37.387Z,42.60
2022-10-31T21:57:08.467Z,45.58
2022-10-31T21:59:37.899Z,37.22
2022-10-31T22:04:36.668Z,41.15
2022-10-31T22:09:34.951Z,40.42
2022-10-31T22:12:06.732Z,40.45
2022-10-31T22:14:37.558Z,42.00
2022-10-31T22:17:07.199Z,36.22
2022-10-31T22:19:36.566Z,35.65
2022-10-31T22:24:34.909Z,29.08
2022-10-31T22:27:04.536Z,32.78
2022-10-31T22:29:37.591Z,32.90
2022-10-31T22:32:07.497Z,31.02
2022-10-31T22:34:36.771Z,31.33
2022-10-31T22:37:06.103Z,30.17
2022-10-31T22:39:35.213Z,28.17
2022-10-31T22:42:04.650Z,23.50
2022-10-31T22:44:33.762Z,24.20
2022-10-31T22:47:04.748Z,29.80
2022-10-31T22:49:34.087Z,22.77
2022-10-31T22:52:03.671Z,23.55
2022-10-31T22:57:02.226Z,29.70
2022-10-31T22:59:31.438Z,24.67
2022-10-31T23:02:00.953Z,28.10
2022-10-31T23:07:00.754Z,30.05
2022-10-31T23:09:30.158Z,30.70
2022-10-31T23:12:19.589Z,25.00
2022-10-31T23:14:47.781Z,21.60
2022-10-31T23:17:18.739Z,23.60
2022-10-31T23:19:49.435Z,29.90
2022-10-31T23:22:18.845Z,25.05
2022-10-31T23:24:48.857Z,23.02
2022-10-31T23:27:19.510Z,30.65
2022-10-31T23:29:50.839Z,25.45
2022-10-31T23:32:22.998Z,40.08
2022-10-31T23:34:55.576Z,28.90
2022-10-31T23:37:27.042Z,30.65
2022-10-31T23:39:56.362Z,26.73
2022-10-31T23:44:56.335Z,22.08
2022-10-31T23:47:26.144Z,36.17
2022-10-31T23:49:56.768Z,21.42
2022-10-31T23:52:26.307Z,22.35
2022-10-31T23:54:55.534Z,24.75
2022-10-31T23:59:53.845Z,21.52
